sensor_id;sensor_type;location;lat;lon;timestamp;P1;durP1;ratioP1;P2;durP2;ratioP2
21798;SDS011;24973;47.178;15.316;2022-12-18T00:01:14;1.90;;;1.80;;
21798;SDS011;24973;47.178;15.316;2022-12-18T00:04:07;3.00;;;2.80;;
21798;SDS011;24973;47.178;15.316;2022-12-18T00:07:03;3.57;;;2.27;;
21798;SDS011;24973;47.178;15.316;2022-12-18T00:09:51;2.43;;;2.20;;
21798;SDS011;24973;47.178;15.316;2022-12-18T00:12:40;4.13;;;2.60;;
21798;SDS011;24973;47.178;15.316;2022-12-18T00:15:30;2.93;;;2.07;;
21798;SDS011;24973;47.178;15.316;2022-12-18T00:18:21;1.63;;;1.60;;
21798;SDS011;24973;47.178;15.316;2022-12-18T00:21:11;2.67;;;1.47;;
21798;SDS011;24973;47.178;15.316;2022-12-18T00:24:00;1.17;;;1.10;;
21798;SDS011;24973;47.178;15.316;2022-12-18T00:26:49;1.17;;;1.07;;
21798;SDS011;24973;47.178;15.316;2022-12-18T00:29:41;2.40;;;2.20;;
21798;SDS011;24973;47.178;15.316;2022-12-18T00:32:32;3.93;;;2.70;;
21798;SDS011;24973;47.178;15.316;2022-12-18T00:35:21;2.27;;;2.17;;
21798;SDS011;24973;47.178;15.316;2022-12-18T00:38:09;2.77;;;2.57;;
21798;SDS011;24973;47.178;15.316;2022-12-18T00:40:58;3.20;;;2.90;;
21798;SDS011;24973;47.178;15.316;2022-12-18T00:43:47;6.43;;;4.00;;
21798;SDS011;24973;47.178;15.316;2022-12-18T00:46:35;1.03;;;1.00;;
21798;SDS011;24973;47.178;15.316;2022-12-18T00:49:25;4.80;;;2.37;;
21798;SDS011;24973;47.178;15.316;2022-12-18T00:52:14;2.67;;;2.10;;
21798;SDS011;24973;47.178;15.316;2022-12-18T00:55:03;2.97;;;2.37;;
21798;SDS011;24973;47.178;15.316;2022-12-18T00:57:52;4.03;;;2.50;;
21798;SDS011;24973;47.178;15.316;2022-12-18T01:00:41;0.80;;;0.80;;
21798;SDS011;24973;47.178;15.316;2022-12-18T01:03:30;1.57;;;1.47;;
21798;SDS011;24973;47.178;15.316;2022-12-18T01:06:21;1.93;;;1.83;;
21798;SDS011;24973;47.178;15.316;2022-12-18T01:09:09;2.67;;;2.40;;
21798;SDS011;24973;47.178;15.316;2022-12-18T01:11:58;2.67;;;2.47;;
21798;SDS011;24973;47.178;15.316;2022-12-18T01:14:47;3.53;;;2.27;;
21798;SDS011;24973;47.178;15.316;2022-12-18T01:17:36;1.83;;;1.70;;
21798;SDS011;24973;47.178;15.316;2022-12-18T01:20:24;2.23;;;2.13;;
21798;SDS011;24973;47.178;15.316;2022-12-18T01:23:14;1.90;;;1.80;;
21798;SDS011;24973;47.178;15.316;2022-12-18T01:26:04;4.07;;;3.47;;
21798;SDS011;24973;47.178;15.316;2022-12-18T01:28:54;5.80;;;2.33;;
21798;SDS011;24973;47.178;15.316;2022-12-18T01:31:43;2.47;;;2.27;;
21798;SDS011;24973;47.178;15.316;2022-12-18T01:34:32;1.93;;;1.60;;
21798;SDS011;24973;47.178;15.316;2022-12-18T01:37:20;3.40;;;2.50;;
21798;SDS011;24973;47.178;15.316;2022-12-18T01:40:11;2.60;;;2.20;;
21798;SDS011;24973;47.178;15.316;2022-12-18T01:43:00;2.37;;;1.87;;
21798;SDS011;24973;47.178;15.316;2022-12-18T01:45:48;1.40;;;1.30;;
21798;SDS011;24973;47.178;15.316;2022-12-18T01:48:37;2.07;;;1.97;;
21798;SDS011;24973;47.178;15.316;2022-12-18T01:51:27;1.87;;;1.77;;
21798;SDS011;24973;47.178;15.316;2022-12-18T01:54:17;1.20;;;1.20;;
21798;SDS011;24973;47.178;15.316;2022-12-18T01:57:07;0.97;;;0.97;;
21798;SDS011;24973;47.178;15.316;2022-12-18T01:59:57;1.80;;;1.00;;
21798;SDS011;24973;47.178;15.316;2022-12-18T02:02:50;2.20;;;2.10;;
21798;SDS011;24973;47.178;15.316;2022-12-18T02:05:41;1.00;;;1.00;;
21798;SDS011;24973;47.178;15.316;2022-12-18T02:08:37;2.10;;;1.87;;
21798;SDS011;24973;47.178;15.316;2022-12-18T02:11:37;2.37;;;1.97;;
21798;SDS011;24973;47.178;15.316;2022-12-18T02:14:38;2.70;;;1.53;;
21798;SDS011;24973;47.178;15.316;2022-12-18T02:17:33;3.35;;;2.17;;
21798;SDS011;24973;47.178;15.316;2022-12-18T02:20:28;1.97;;;1.87;;
21798;SDS011;24973;47.178;15.316;2022-12-18T02:23:24;1.47;;;1.37;;
21798;SDS011;24973;47.178;15.316;2022-12-18T02:26:35;1.10;;;1.10;;
21798;SDS011;24973;47.178;15.316;2022-12-18T02:29:29;2.73;;;2.50;;
21798;SDS011;24973;47.178;15.316;2022-12-18T02:32:24;2.93;;;2.50;;
21798;SDS011;24973;47.178;15.316;2022-12-18T02:35:16;2.13;;;1.67;;
21798;SDS011;24973;47.178;15.316;2022-12-18T02:38:10;2.63;;;2.43;;
21798;SDS011;24973;47.178;15.316;2022-12-18T02:40:59;2.50;;;2.30;;
21798;SDS011;24973;47.178;15.316;2022-12-18T02:43:55;2.65;;;1.55;;
21798;SDS011;24973;47.178;15.316;2022-12-18T02:46:48;1.00;;;1.00;;
21798;SDS011;24973;47.178;15.316;2022-12-18T02:49:42;2.47;;;2.27;;
21798;SDS011;24973;47.178;15.316;2022-12-18T02:52:41;2.17;;;2.08;;
21798;SDS011;24973;47.178;15.316;2022-12-18T02:55:44;3.83;;;3.33;;
21798;SDS011;24973;47.178;15.316;2022-12-18T02:58:47;3.90;;;2.40;;
21798;SDS011;24973;47.178;15.316;2022-12-18T03:01:48;3.33;;;2.83;;
21798;SDS011;24973;47.178;15.316;2022-12-18T03:04:46;1.55;;;1.50;;
21798;SDS011;24973;47.178;15.316;2022-12-18T03:07:44;1.97;;;1.87;;
21798;SDS011;24973;47.178;15.316;2022-12-18T03:10:39;2.17;;;2.07;;
21798;SDS011;24973;47.178;15.316;2022-12-18T03:13:34;1.70;;;1.60;;
21798;SDS011;24973;47.178;15.316;2022-12-18T03:16:29;2.73;;;2.47;;
21798;SDS011;24973;47.178;15.316;2022-12-18T03:19:22;4.07;;;2.03;;
21798;SDS011;24973;47.178;15.316;2022-12-18T03:22:13;2.00;;;1.90;;
21798;SDS011;24973;47.178;15.316;2022-12-18T03:25:06;2.57;;;2.37;;
21798;SDS011;24973;47.178;15.316;2022-12-18T03:27:59;6.87;;;2.57;;
21798;SDS011;24973;47.178;15.316;2022-12-18T03:30:52;1.10;;;1.00;;
21798;SDS011;24973;47.178;15.316;2022-12-18T03:33:47;1.67;;;1.58;;
21798;SDS011;24973;47.178;15.316;2022-12-18T03:36:40;1.52;;;1.42;;
21798;SDS011;24973;47.178;15.316;2022-12-18T03:39:29;1.50;;;1.40;;
21798;SDS011;24973;47.178;15.316;2022-12-18T03:42:21;1.52;;;1.42;;
21798;SDS011;24973;47.178;15.316;2022-12-18T03:45:18;3.42;;;2.45;;
21798;SDS011;24973;47.178;15.316;2022-12-18T03:48:13;2.27;;;1.83;;
21798;SDS011;24973;47.178;15.316;2022-12-18T03:51:10;1.97;;;1.80;;
21798;SDS011;24973;47.178;15.316;2022-12-18T03:54:08;3.27;;;2.80;;
21798;SDS011;24973;47.178;15.316;2022-12-18T03:57:01;3.27;;;1.77;;
21798;SDS011;24973;47.178;15.316;2022-12-18T03:59:56;2.77;;;2.57;;
21798;SDS011;24973;47.178;15.316;2022-12-18T04:02:54;3.87;;;2.23;;
21798;SDS011;24973;47.178;15.316;2022-12-18T04:05:44;1.87;;;1.07;;
21798;SDS011;24973;47.178;15.316;2022-12-18T04:08:37;2.50;;;2.30;;
21798;SDS011;24973;47.178;15.316;2022-12-18T04:11:27;2.97;;;2.77;;
21798;SDS011;24973;47.178;15.316;2022-12-18T04:14:15;3.93;;;2.90;;
21798;SDS011;24973;47.178;15.316;2022-12-18T04:17:04;3.27;;;3.03;;
21798;SDS011;24973;47.178;15.316;2022-12-18T04:19:53;1.27;;;1.17;;
21798;SDS011;24973;47.178;15.316;2022-12-18T04:22:41;2.07;;;1.47;;
21798;SDS011;24973;47.178;15.316;2022-12-18T04:25:32;2.47;;;2.37;;
21798;SDS011;24973;47.178;15.316;2022-12-18T04:28:21;3.33;;;2.37;;
21798;SDS011;24973;47.178;15.316;2022-12-18T04:31:10;0.60;;;0.60;;
21798;SDS011;24973;47.178;15.316;2022-12-18T04:34:00;1.90;;;1.77;;
21798;SDS011;24973;47.178;15.316;2022-12-18T04:36:49;2.97;;;2.45;;
21798;SDS011;24973;47.178;15.316;2022-12-18T04:39:37;1.83;;;1.70;;
21798;SDS011;24973;47.178;15.316;2022-12-18T04:42:27;1.93;;;1.10;;
21798;SDS011;24973;47.178;15.316;2022-12-18T04:45:16;4.00;;;3.63;;
21798;SDS011;24973;47.178;15.316;2022-12-18T04:48:05;2.50;;;2.30;;
21798;SDS011;24973;47.178;15.316;2022-12-18T04:50:54;2.97;;;2.77;;
21798;SDS011;24973;47.178;15.316;2022-12-18T04:53:42;0.90;;;0.90;;
21798;SDS011;24973;47.178;15.316;2022-12-18T04:56:31;1.95;;;1.83;;
21798;SDS011;24973;47.178;15.316;2022-12-18T04:59:21;1.00;;;1.00;;
21798;SDS011;24973;47.178;15.316;2022-12-18T05:02:10;2.60;;;2.40;;
21798;SDS011;24973;47.178;15.316;2022-12-18T05:04:59;1.83;;;1.48;;
21798;SDS011;24973;47.178;15.316;2022-12-18T05:07:47;2.30;;;2.20;;
21798;SDS011;24973;47.178;15.316;2022-12-18T05:10:36;2.45;;;2.35;;
21798;SDS011;24973;47.178;15.316;2022-12-18T05:13:25;2.42;;;2.22;;
21798;SDS011;24973;47.178;15.316;2022-12-18T05:16:15;1.07;;;1.07;;
21798;SDS011;24973;47.178;15.316;2022-12-18T05:19:04;2.25;;;2.15;;
21798;SDS011;24973;47.178;15.316;2022-12-18T05:21:52;0.90;;;0.90;;
21798;SDS011;24973;47.178;15.316;2022-12-18T05:24:41;2.57;;;2.37;;
21798;SDS011;24973;47.178;15.316;2022-12-18T05:27:30;1.73;;;0.90;;
21798;SDS011;24973;47.178;15.316;2022-12-18T05:30:18;2.65;;;2.45;;
21798;SDS011;24973;47.178;15.316;2022-12-18T05:33:09;4.10;;;3.43;;
21798;SDS011;24973;47.178;15.316;2022-12-18T05:35:58;1.30;;;1.30;;
21798;SDS011;24973;47.178;15.316;2022-12-18T05:38:52;2.37;;;2.17;;
21798;SDS011;24973;47.178;15.316;2022-12-18T05:41:41;1.25;;;1.25;;
21798;SDS011;24973;47.178;15.316;2022-12-18T05:44:29;6.60;;;3.87;;
21798;SDS011;24973;47.178;15.316;2022-12-18T05:47:18;1.63;;;1.53;;
21798;SDS011;24973;47.178;15.316;2022-12-18T05:50:08;2.57;;;2.37;;
21798;SDS011;24973;47.178;15.316;2022-12-18T05:52:57;2.73;;;2.53;;
21798;SDS011;24973;47.178;15.316;2022-12-18T05:55:46;1.57;;;1.47;;
21798;SDS011;24973;47.178;15.316;2022-12-18T05:58:35;1.87;;;1.47;;
21798;SDS011;24973;47.178;15.316;2022-12-18T06:01:25;2.00;;;1.90;;
21798;SDS011;24973;47.178;15.316;2022-12-18T06:04:14;0.73;;;0.73;;
21798;SDS011;24973;47.178;15.316;2022-12-18T06:07:04;4.43;;;4.07;;
21798;SDS011;24973;47.178;15.316;2022-12-18T06:09:53;1.27;;;1.27;;
21798;SDS011;24973;47.178;15.316;2022-12-18T06:12:42;1.40;;;1.30;;
21798;SDS011;24973;47.178;15.316;2022-12-18T06:15:31;2.85;;;2.60;;
21798;SDS011;24973;47.178;15.316;2022-12-18T06:18:20;3.43;;;2.83;;
21798;SDS011;24973;47.178;15.316;2022-12-18T06:21:08;1.37;;;1.37;;
21798;SDS011;24973;47.178;15.316;2022-12-18T06:23:59;3.72;;;2.85;;
21798;SDS011;24973;47.178;15.316;2022-12-18T06:26:48;3.73;;;2.63;;
21798;SDS011;24973;47.178;15.316;2022-12-18T06:29:36;2.80;;;2.28;;
21798;SDS011;24973;47.178;15.316;2022-12-18T06:32:25;5.17;;;3.00;;
21798;SDS011;24973;47.178;15.316;2022-12-18T06:35:14;4.83;;;3.63;;
21798;SDS011;24973;47.178;15.316;2022-12-18T06:38:03;3.53;;;2.60;;
21798;SDS011;24973;47.178;15.316;2022-12-18T06:40:53;6.37;;;4.63;;
21798;SDS011;24973;47.178;15.316;2022-12-18T06:43:42;20.03;;;12.07;;
21798;SDS011;24973;47.178;15.316;2022-12-18T06:46:31;8.30;;;6.67;;
21798;SDS011;24973;47.178;15.316;2022-12-18T06:49:19;10.20;;;6.03;;
21798;SDS011;24973;47.178;15.316;2022-12-18T06:52:10;1.30;;;1.30;;
21798;SDS011;24973;47.178;15.316;2022-12-18T06:54:59;9.97;;;2.60;;
21798;SDS011;24973;47.178;15.316;2022-12-18T06:57:49;3.37;;;1.73;;
21798;SDS011;24973;47.178;15.316;2022-12-18T07:00:38;1.77;;;1.67;;
21798;SDS011;24973;47.178;15.316;2022-12-18T07:03:27;1.87;;;1.77;;
21798;SDS011;24973;47.178;15.316;2022-12-18T07:06:16;1.53;;;1.43;;
21798;SDS011;24973;47.178;15.316;2022-12-18T07:09:07;1.80;;;1.57;;
21798;SDS011;24973;47.178;15.316;2022-12-18T07:11:55;3.90;;;1.48;;
21798;SDS011;24973;47.178;15.316;2022-12-18T07:14:45;4.40;;;2.47;;
21798;SDS011;24973;47.178;15.316;2022-12-18T07:17:34;1.75;;;1.65;;
21798;SDS011;24973;47.178;15.316;2022-12-18T07:20:23;2.50;;;2.30;;
21798;SDS011;24973;47.178;15.316;2022-12-18T07:23:12;3.63;;;3.33;;
21798;SDS011;24973;47.178;15.316;2022-12-18T07:26:01;4.50;;;3.30;;
21798;SDS011;24973;47.178;15.316;2022-12-18T07:28:53;6.83;;;3.63;;
21798;SDS011;24973;47.178;15.316;2022-12-18T07:31:45;1.43;;;1.40;;
21798;SDS011;24973;47.178;15.316;2022-12-18T07:34:34;2.60;;;2.05;;
21798;SDS011;24973;47.178;15.316;2022-12-18T07:37:23;3.67;;;3.27;;
21798;SDS011;24973;47.178;15.316;2022-12-18T07:40:12;3.53;;;3.23;;
21798;SDS011;24973;47.178;15.316;2022-12-18T07:43:00;2.33;;;2.00;;
21798;SDS011;24973;47.178;15.316;2022-12-18T07:45:49;2.20;;;2.07;;
21798;SDS011;24973;47.178;15.316;2022-12-18T07:48:39;3.03;;;2.77;;
21798;SDS011;24973;47.178;15.316;2022-12-18T07:51:28;1.00;;;1.00;;
21798;SDS011;24973;47.178;15.316;2022-12-18T07:54:17;2.10;;;1.73;;
21798;SDS011;24973;47.178;15.316;2022-12-18T07:57:06;4.40;;;4.07;;
21798;SDS011;24973;47.178;15.316;2022-12-18T08:00:07;3.50;;;3.20;;
21798;SDS011;24973;47.178;15.316;2022-12-18T08:02:59;2.93;;;2.73;;
21798;SDS011;24973;47.178;15.316;2022-12-18T08:05:52;3.43;;;3.10;;
21798;SDS011;24973;47.178;15.316;2022-12-18T08:08:40;5.67;;;3.70;;
21798;SDS011;24973;47.178;15.316;2022-12-18T08:11:29;4.70;;;2.73;;
21798;SDS011;24973;47.178;15.316;2022-12-18T08:14:18;3.60;;;3.27;;
21798;SDS011;24973;47.178;15.316;2022-12-18T08:17:07;2.37;;;2.27;;
21798;SDS011;24973;47.178;15.316;2022-12-18T08:19:55;3.95;;;3.42;;
21798;SDS011;24973;47.178;15.316;2022-12-18T08:22:45;3.83;;;3.05;;
21798;SDS011;24973;47.178;15.316;2022-12-18T08:25:34;5.70;;;4.30;;
21798;SDS011;24973;47.178;15.316;2022-12-18T08:28:23;4.50;;;4.10;;
21798;SDS011;24973;47.178;15.316;2022-12-18T08:31:11;7.00;;;4.40;;
21798;SDS011;24973;47.178;15.316;2022-12-18T08:34:00;6.20;;;3.47;;
21798;SDS011;24973;47.178;15.316;2022-12-18T08:36:49;6.10;;;4.90;;
21798;SDS011;24973;47.178;15.316;2022-12-18T08:39:39;9.30;;;5.07;;
21798;SDS011;24973;47.178;15.316;2022-12-18T08:42:28;2.97;;;2.77;;
21798;SDS011;24973;47.178;15.316;2022-12-18T08:45:34;3.00;;;2.70;;
21798;SDS011;24973;47.178;15.316;2022-12-18T08:48:23;3.00;;;2.63;;
21798;SDS011;24973;47.178;15.316;2022-12-18T08:51:12;4.70;;;4.33;;
21798;SDS011;24973;47.178;15.316;2022-12-18T08:54:03;3.63;;;2.80;;
21798;SDS011;24973;47.178;15.316;2022-12-18T08:56:54;4.33;;;4.03;;
21798;SDS011;24973;47.178;15.316;2022-12-18T08:59:43;4.87;;;4.37;;
21798;SDS011;24973;47.178;15.316;2022-12-18T09:02:32;5.60;;;4.07;;
21798;SDS011;24973;47.178;15.316;2022-12-18T09:05:21;4.87;;;4.47;;
21798;SDS011;24973;47.178;15.316;2022-12-18T09:08:09;8.10;;;4.90;;
21798;SDS011;24973;47.178;15.316;2022-12-18T09:10:58;6.93;;;4.37;;
21798;SDS011;24973;47.178;15.316;2022-12-18T09:13:49;8.03;;;4.77;;
21798;SDS011;24973;47.178;15.316;2022-12-18T09:16:38;1.83;;;1.73;;
21798;SDS011;24973;47.178;15.316;2022-12-18T09:19:27;5.50;;;3.97;;
21798;SDS011;24973;47.178;15.316;2022-12-18T09:22:15;5.67;;;5.17;;
21798;SDS011;24973;47.178;15.316;2022-12-18T09:25:04;4.60;;;4.20;;
21798;SDS011;24973;47.178;15.316;2022-12-18T09:27:54;7.20;;;5.40;;
21798;SDS011;24973;47.178;15.316;2022-12-18T09:30:45;9.07;;;5.60;;
21798;SDS011;24973;47.178;15.316;2022-12-18T09:33:36;7.27;;;5.57;;
21798;SDS011;24973;47.178;15.316;2022-12-18T09:36:32;6.07;;;4.97;;
21798;SDS011;24973;47.178;15.316;2022-12-18T09:39:21;14.63;;;9.10;;
21798;SDS011;24973;47.178;15.316;2022-12-18T09:42:15;10.70;;;8.50;;
21798;SDS011;24973;47.178;15.316;2022-12-18T09:45:08;9.63;;;7.03;;
21798;SDS011;24973;47.178;15.316;2022-12-18T09:48:03;11.67;;;5.97;;
21798;SDS011;24973;47.178;15.316;2022-12-18T09:50:54;5.47;;;5.03;;
21798;SDS011;24973;47.178;15.316;2022-12-18T09:53:50;7.43;;;5.17;;
21798;SDS011;24973;47.178;15.316;2022-12-18T09:56:44;5.17;;;3.73;;
21798;SDS011;24973;47.178;15.316;2022-12-18T09:59:34;7.77;;;5.77;;
21798;SDS011;24973;47.178;15.316;2022-12-18T10:02:26;5.47;;;3.97;;
21798;SDS011;24973;47.178;15.316;2022-12-18T10:05:20;5.90;;;4.57;;
21798;SDS011;24973;47.178;15.316;2022-12-18T10:08:20;4.67;;;3.70;;
21798;SDS011;24973;47.178;15.316;2022-12-18T10:11:27;8.60;;;6.63;;
21798;SDS011;24973;47.178;15.316;2022-12-18T10:14:27;7.10;;;6.40;;
21798;SDS011;24973;47.178;15.316;2022-12-18T10:17:25;3.33;;;3.03;;
21798;SDS011;24973;47.178;15.316;2022-12-18T10:20:27;5.57;;;4.73;;
21798;SDS011;24973;47.178;15.316;2022-12-18T10:23:25;9.30;;;6.20;;
21798;SDS011;24973;47.178;15.316;2022-12-18T10:26:21;11.20;;;10.07;;
21798;SDS011;24973;47.178;15.316;2022-12-18T10:29:10;26.03;;;18.77;;
21798;SDS011;24973;47.178;15.316;2022-12-18T10:32:01;13.90;;;9.20;;
21798;SDS011;24973;47.178;15.316;2022-12-18T10:34:51;19.03;;;11.07;;
21798;SDS011;24973;47.178;15.316;2022-12-18T10:38:06;16.87;;;9.57;;
21798;SDS011;24973;47.178;15.316;2022-12-18T10:41:22;9.20;;;7.20;;
21798;SDS011;24973;47.178;15.316;2022-12-18T10:44:16;8.97;;;6.60;;
21798;SDS011;24973;47.178;15.316;2022-12-18T10:47:11;9.73;;;5.33;;
21798;SDS011;24973;47.178;15.316;2022-12-18T10:50:03;8.03;;;5.53;;
21798;SDS011;24973;47.178;15.316;2022-12-18T10:52:54;5.20;;;4.30;;
21798;SDS011;24973;47.178;15.316;2022-12-18T10:55:46;8.53;;;6.00;;
21798;SDS011;24973;47.178;15.316;2022-12-18T10:58:36;7.10;;;5.30;;
21798;SDS011;24973;47.178;15.316;2022-12-18T11:01:26;7.73;;;5.23;;
21798;SDS011;24973;47.178;15.316;2022-12-18T11:04:18;10.67;;;6.37;;
21798;SDS011;24973;47.178;15.316;2022-12-18T11:07:09;7.63;;;5.17;;
21798;SDS011;24973;47.178;15.316;2022-12-18T11:10:04;7.57;;;5.77;;
21798;SDS011;24973;47.178;15.316;2022-12-18T11:13:10;7.90;;;5.93;;
21798;SDS011;24973;47.178;15.316;2022-12-18T11:16:04;10.90;;;6.73;;
21798;SDS011;24973;47.178;15.316;2022-12-18T11:18:53;12.07;;;6.17;;
21798;SDS011;24973;47.178;15.316;2022-12-18T11:21:43;10.90;;;6.63;;
21798;SDS011;24973;47.178;15.316;2022-12-18T11:24:32;10.50;;;7.43;;
21798;SDS011;24973;47.178;15.316;2022-12-18T11:27:23;12.37;;;8.00;;
21798;SDS011;24973;47.178;15.316;2022-12-18T11:30:20;14.07;;;7.77;;
21798;SDS011;24973;47.178;15.316;2022-12-18T11:33:12;11.43;;;7.00;;
21798;SDS011;24973;47.178;15.316;2022-12-18T11:36:07;8.87;;;7.43;;
21798;SDS011;24973;47.178;15.316;2022-12-18T11:38:59;10.37;;;7.73;;
21798;SDS011;24973;47.178;15.316;2022-12-18T11:41:58;13.03;;;7.53;;
21798;SDS011;24973;47.178;15.316;2022-12-18T11:44:57;11.50;;;8.63;;
21798;SDS011;24973;47.178;15.316;2022-12-18T11:47:52;9.37;;;6.70;;
21798;SDS011;24973;47.178;15.316;2022-12-18T11:50:48;11.37;;;7.23;;
21798;SDS011;24973;47.178;15.316;2022-12-18T11:53:39;10.10;;;6.87;;
21798;SDS011;24973;47.178;15.316;2022-12-18T11:56:29;10.63;;;8.27;;
21798;SDS011;24973;47.178;15.316;2022-12-18T11:59:23;12.03;;;8.73;;
21798;SDS011;24973;47.178;15.316;2022-12-18T12:02:24;14.13;;;9.67;;
21798;SDS011;24973;47.178;15.316;2022-12-18T12:05:39;14.17;;;9.97;;
21798;SDS011;24973;47.178;15.316;2022-12-18T12:08:41;18.73;;;13.67;;
21798;SDS011;24973;47.178;15.316;2022-12-18T12:11:48;15.77;;;10.20;;
21798;SDS011;24973;47.178;15.316;2022-12-18T12:14:51;17.53;;;13.50;;
21798;SDS011;24973;47.178;15.316;2022-12-18T12:17:50;15.00;;;10.50;;
21798;SDS011;24973;47.178;15.316;2022-12-18T12:20:47;13.90;;;11.30;;
21798;SDS011;24973;47.178;15.316;2022-12-18T12:23:45;15.70;;;10.93;;
21798;SDS011;24973;47.178;15.316;2022-12-18T12:26:42;13.43;;;10.40;;
21798;SDS011;24973;47.178;15.316;2022-12-18T12:29:42;16.73;;;10.77;;
21798;SDS011;24973;47.178;15.316;2022-12-18T12:32:45;16.57;;;10.07;;
21798;SDS011;24973;47.178;15.316;2022-12-18T12:35:57;12.70;;;9.83;;
21798;SDS011;24973;47.178;15.316;2022-12-18T12:38:56;16.07;;;10.57;;
21798;SDS011;24973;47.178;15.316;2022-12-18T12:41:49;14.20;;;10.07;;
21798;SDS011;24973;47.178;15.316;2022-12-18T12:44:55;15.70;;;10.03;;
21798;SDS011;24973;47.178;15.316;2022-12-18T12:47:47;15.53;;;10.23;;
21798;SDS011;24973;47.178;15.316;2022-12-18T12:50:38;18.27;;;11.10;;
21798;SDS011;24973;47.178;15.316;2022-12-18T12:53:30;14.03;;;10.07;;
21798;SDS011;24973;47.178;15.316;2022-12-18T12:56:24;17.30;;;11.77;;
21798;SDS011;24973;47.178;15.316;2022-12-18T12:59:39;18.80;;;11.33;;
21798;SDS011;24973;47.178;15.316;2022-12-18T13:02:37;14.07;;;11.23;;
21798;SDS011;24973;47.178;15.316;2022-12-18T13:05:34;16.10;;;10.80;;
21798;SDS011;24973;47.178;15.316;2022-12-18T13:08:51;18.07;;;10.97;;
21798;SDS011;24973;47.178;15.316;2022-12-18T13:11:43;16.97;;;10.97;;
21798;SDS011;24973;47.178;15.316;2022-12-18T13:14:51;14.77;;;10.83;;
21798;SDS011;24973;47.178;15.316;2022-12-18T13:17:42;17.33;;;11.77;;
21798;SDS011;24973;47.178;15.316;2022-12-18T13:20:34;20.83;;;12.77;;
21798;SDS011;24973;47.178;15.316;2022-12-18T13:23:26;15.13;;;9.87;;
21798;SDS011;24973;47.178;15.316;2022-12-18T13:26:30;16.50;;;12.00;;
21798;SDS011;24973;47.178;15.316;2022-12-18T13:29:40;18.20;;;12.63;;
21798;SDS011;24973;47.178;15.316;2022-12-18T13:32:30;17.90;;;11.07;;
21798;SDS011;24973;47.178;15.316;2022-12-18T13:35:38;19.97;;;12.47;;
21798;SDS011;24973;47.178;15.316;2022-12-18T13:38:34;18.67;;;12.60;;
21798;SDS011;24973;47.178;15.316;2022-12-18T13:41:25;18.53;;;13.77;;
21798;SDS011;24973;47.178;15.316;2022-12-18T13:44:22;20.27;;;13.57;;
21798;SDS011;24973;47.178;15.316;2022-12-18T13:47:24;20.43;;;13.47;;
21798;SDS011;24973;47.178;15.316;2022-12-18T13:50:20;17.97;;;11.43;;
21798;SDS011;24973;47.178;15.316;2022-12-18T13:53:19;21.00;;;13.10;;
21798;SDS011;24973;47.178;15.316;2022-12-18T13:56:21;18.23;;;13.00;;
21798;SDS011;24973;47.178;15.316;2022-12-18T13:59:13;18.77;;;11.50;;
21798;SDS011;24973;47.178;15.316;2022-12-18T14:02:07;18.27;;;12.07;;
21798;SDS011;24973;47.178;15.316;2022-12-18T14:05:02;18.77;;;12.67;;
21798;SDS011;24973;47.178;15.316;2022-12-18T14:07:52;21.73;;;12.67;;
21798;SDS011;24973;47.178;15.316;2022-12-18T14:10:42;22.13;;;12.37;;
21798;SDS011;24973;47.178;15.316;2022-12-18T14:13:37;20.13;;;13.57;;
21798;SDS011;24973;47.178;15.316;2022-12-18T14:16:30;19.53;;;11.57;;
21798;SDS011;24973;47.178;15.316;2022-12-18T14:19:20;18.90;;;14.17;;
21798;SDS011;24973;47.178;15.316;2022-12-18T14:22:14;27.70;;;13.80;;
21798;SDS011;24973;47.178;15.316;2022-12-18T14:25:14;27.70;;;13.47;;
21798;SDS011;24973;47.178;15.316;2022-12-18T14:28:15;17.40;;;12.93;;
21798;SDS011;24973;47.178;15.316;2022-12-18T14:31:15;21.27;;;13.27;;
21798;SDS011;24973;47.178;15.316;2022-12-18T14:34:08;21.03;;;13.90;;
21798;SDS011;24973;47.178;15.316;2022-12-18T14:37:03;14.17;;;12.70;;
21798;SDS011;24973;47.178;15.316;2022-12-18T14:39:54;20.20;;;13.10;;
21798;SDS011;24973;47.178;15.316;2022-12-18T14:42:44;17.13;;;12.07;;
21798;SDS011;24973;47.178;15.316;2022-12-18T14:45:34;16.23;;;13.13;;
21798;SDS011;24973;47.178;15.316;2022-12-18T14:48:34;21.00;;;14.47;;
21798;SDS011;24973;47.178;15.316;2022-12-18T14:51:28;22.23;;;13.43;;
21798;SDS011;24973;47.178;15.316;2022-12-18T14:54:20;19.63;;;14.30;;
21798;SDS011;24973;47.178;15.316;2022-12-18T14:57:14;16.00;;;11.40;;
21798;SDS011;24973;47.178;15.316;2022-12-18T15:00:14;19.23;;;13.53;;
21798;SDS011;24973;47.178;15.316;2022-12-18T15:03:06;22.60;;;14.37;;
21798;SDS011;24973;47.178;15.316;2022-12-18T15:05:58;25.63;;;14.87;;
21798;SDS011;24973;47.178;15.316;2022-12-18T15:09:05;21.63;;;12.50;;
21798;SDS011;24973;47.178;15.316;2022-12-18T15:12:19;18.17;;;13.03;;
21798;SDS011;24973;47.178;15.316;2022-12-18T15:18:35;25.43;;;15.53;;
21798;SDS011;24973;47.178;15.316;2022-12-18T15:21:33;22.40;;;14.53;;
21798;SDS011;24973;47.178;15.316;2022-12-18T15:24:23;20.07;;;12.17;;
21798;SDS011;24973;47.178;15.316;2022-12-18T15:30:25;21.93;;;14.10;;
21798;SDS011;24973;47.178;15.316;2022-12-18T15:33:22;18.57;;;12.33;;
21798;SDS011;24973;47.178;15.316;2022-12-18T15:36:14;20.43;;;12.30;;
21798;SDS011;24973;47.178;15.316;2022-12-18T15:39:05;23.83;;;13.47;;
21798;SDS011;24973;47.178;15.316;2022-12-18T15:41:54;21.80;;;13.37;;
21798;SDS011;24973;47.178;15.316;2022-12-18T15:45:00;25.37;;;14.57;;
21798;SDS011;24973;47.178;15.316;2022-12-18T15:47:49;28.73;;;15.47;;
21798;SDS011;24973;47.178;15.316;2022-12-18T15:50:38;24.13;;;13.40;;
21798;SDS011;24973;47.178;15.316;2022-12-18T15:53:27;20.37;;;13.17;;
21798;SDS011;24973;47.178;15.316;2022-12-18T15:56:21;20.50;;;13.77;;
21798;SDS011;24973;47.178;15.316;2022-12-18T15:59:28;20.47;;;14.87;;
21798;SDS011;24973;47.178;15.316;2022-12-18T16:02:17;17.03;;;11.30;;
21798;SDS011;24973;47.178;15.316;2022-12-18T16:05:09;24.37;;;14.30;;
21798;SDS011;24973;47.178;15.316;2022-12-18T16:08:03;19.20;;;14.07;;
21798;SDS011;24973;47.178;15.316;2022-12-18T16:10:52;25.23;;;15.70;;
21798;SDS011;24973;47.178;15.316;2022-12-18T16:13:42;22.83;;;15.50;;
21798;SDS011;24973;47.178;15.316;2022-12-18T16:16:31;21.57;;;14.70;;
21798;SDS011;24973;47.178;15.316;2022-12-18T16:19:20;26.77;;;14.77;;
21798;SDS011;24973;47.178;15.316;2022-12-18T16:22:15;20.40;;;14.70;;
21798;SDS011;24973;47.178;15.316;2022-12-18T16:25:09;24.50;;;14.87;;
21798;SDS011;24973;47.178;15.316;2022-12-18T16:28:10;24.03;;;14.30;;
21798;SDS011;24973;47.178;15.316;2022-12-18T16:31:00;28.97;;;19.07;;
21798;SDS011;24973;47.178;15.316;2022-12-18T16:33:49;26.43;;;16.20;;
21798;SDS011;24973;47.178;15.316;2022-12-18T16:36:58;21.13;;;14.07;;
21798;SDS011;24973;47.178;15.316;2022-12-18T16:39:50;17.20;;;9.43;;
21798;SDS011;24973;47.178;15.316;2022-12-18T16:42:39;30.07;;;16.23;;
21798;SDS011;24973;47.178;15.316;2022-12-18T16:45:30;27.80;;;17.00;;
21798;SDS011;24973;47.178;15.316;2022-12-18T16:48:21;22.70;;;14.97;;
21798;SDS011;24973;47.178;15.316;2022-12-18T16:51:10;24.70;;;15.97;;
21798;SDS011;24973;47.178;15.316;2022-12-18T16:53:58;20.40;;;13.27;;
21798;SDS011;24973;47.178;15.316;2022-12-18T16:56:49;20.83;;;15.07;;
21798;SDS011;24973;47.178;15.316;2022-12-18T16:59:38;20.93;;;14.80;;
21798;SDS011;24973;47.178;15.316;2022-12-18T17:02:27;22.10;;;14.53;;